Data for 04/05/2005

Time Sea-Level Adjusted Pressure Absolute Pressure Temperature Relative Humidity Dew Point   
(mb) (inHg) (mb) (inHg) (C) (F) (%) (C) (F)
00:05 1016 30 846 24.98 0.4 32.7 100 0.4 32.7
00:10 1016 30 846 24.98 0.4 32.7 100 0.4 32.7
00:15 1017 30.03 846 24.98 0.3 32.6 100 0.3 32.6
00:20 1017 30.03 846 24.98 0.3 32.6 100 0.3 32.6
00:25 1017 30.03 846 24.98 0.3 32.5 100 0.3 32.5
00:30 1017 30.03 846 24.98 0.3 32.5 100 0.3 32.5
00:35 1017 30.03 846 24.98 0.3 32.5 100 0.3 32.5
00:40 1017 30.03 846 24.98 0.3 32.5 100 0.3 32.5
00:45 1017 30.03 846 24.98 0.3 32.5 100 0.3 32.5
00:50 1017 30.03 846 24.98 0.3 32.5 100 0.2 32.4
00:55 1017 30.03 847 25.01 0.3 32.5 100 0.3 32.5
01:00 1017 30.03 847 25.01 0.3 32.5 100 0.3 32.5
01:05 1017 30.03 847 25.01 0.2 32.4 100 0.2 32.4
01:10 1017 30.03 847 25.01 0.3 32.5 100 0.3 32.5
01:15 1018 30.06 847 25.01 0.3 32.5 100 0.3 32.5
01:20 1018 30.06 847 25.01 0.2 32.4 100 0.2 32.4
01:25 1018 30.06 847 25.01 0.2 32.4 100 0.2 32.4
01:30 1018 30.06 847 25.01 0.3 32.5 100 0.3 32.5
01:35 1018 30.06 847 25.01 0.2 32.4 100 0.2 32.4
01:40 1018 30.06 847 25.01 0.3 32.5 100 0.3 32.5
01:45 1018 30.06 847 25.01 0.2 32.4 100 0.2 32.4
01:50 1018 30.06 847 25.01 0.2 32.4 100 0.2 32.4
01:55 1018 30.06 847 25.01 0.2 32.3 100 0.2 32.3
02:00 1018 30.06 847 25.01 0.2 32.4 100 0.2 32.4
02:05 1018 30.06 848 25.04 0.2 32.3 100 0.2 32.3
02:10 1018 30.06 848 25.04 0.1 32.3 100 0.1 32.3
02:15 1018 30.06 848 25.04 0.1 32.2 100 0.1 32.2
02:20 1019 30.09 848 25.04 0.1 32.3 100 0.1 32.3
02:25 1019 30.09 848 25.04 0.1 32.3 100 0.1 32.3
02:30 1019 30.09 848 25.04 0.2 32.3 100 0.2 32.3
02:35 1019 30.09 848 25.04 0.1 32.3 100 0.1 32.3
02:40 1019 30.09 848 25.04 0.2 32.3 100 0.2 32.3
02:45 1019 30.09 848 25.04 0.2 32.3 100 0.2 32.3
02:50 1019 30.09 848 25.04 0.2 32.4 100 0.2 32.4
02:55 1019 30.09 848 25.04 0.2 32.3 100 0.2 32.3
03:00 1019 30.09 848 25.04 0.2 32.4 100 0.2 32.4
03:05 1019 30.09 848 25.04 0.2 32.4 100 0.2 32.4
03:10 1019 30.09 848 25.04 0.2 32.3 100 0.2 32.3
03:15 1019 30.09 848 25.04 0.2 32.4 100 0.2 32.4
03:20 1019 30.09 848 25.04 0.2 32.3 100 0.2 32.3
03:25 1019 30.09 848 25.04 0.2 32.4 100 0.2 32.4
03:30 1019 30.09 848 25.04 0.2 32.3 100 0.2 32.3
03:35 1019 30.09 848 25.04 0.2 32.3 100 0.2 32.3
03:40 1019 30.09 849 25.07 0.1 32.2 100 0.1 32.2
03:45 1019 30.09 849 25.07 0.1 32.3 99 0.1 32.1
03:50 1019 30.09 849 25.07 0.2 32.3 99 0 32
03:55 1020 30.12 849 25.07 0.2 32.4 99 0 32.1
04:00 1020 30.12 849 25.07 0.2 32.4 98 -0 32
04:05 1020 30.12 849 25.07 0.2 32.4 98 -0 31.9
04:10 1020 30.12 849 25.07 0.2 32.4 98 0 32
04:15 1020 30.12 849 25.07 0.3 32.5 98 0 32
04:20 1020 30.12 849 25.07 0.2 32.4 98 -0.1 31.8
04:25 1020 30.12 849 25.07 0.3 32.6 97 -0.1 31.8
04:30 1020 30.12 850 25.1 0.3 32.6 97 -0.1 31.8
04:35 1021 30.15 850 25.1 0.3 32.6 97 -0.1 31.9
04:40 1021 30.15 850 25.1 0.3 32.6 97 -0.1 31.9
04:45 1021 30.15 850 25.1 0.3 32.5 96 -0.3 31.5
04:50 1021 30.15 850 25.1 0.3 32.6 96 -0.2 31.7
04:55 1021 30.15 850 25.1 0.3 32.6 95 -0.3 31.4
05:00 1021 30.15 850 25.1 0.3 32.6 95 -0.3 31.4
05:05 1021 30.15 850 25.1 0.4 32.7 93 -0.5 31
05:10 1021 30.15 851 25.13 0.5 32.8 93 -0.6 30.9
05:15 1022 30.18 851 25.13 0.4 32.8 90 -1 30.3
05:20 1022 30.18 851 25.13 0.5 32.9 91 -0.8 30.5
05:25 1022 30.18 851 25.13 0.5 32.8 89 -1.1 30
05:30 1022 30.18 851 25.13 0.5 32.8 90 -1 30.3
05:35 1022 30.18 851 25.13 0.4 32.8 90 -1 30.2
05:40 1022 30.18 851 25.13 0.4 32.6 90 -1.1 30.1
05:45 1022 30.18 851 25.13 0.3 32.5 91 -1.1 30.1
05:50 1022 30.18 851 25.13 0.2 32.4 90 -1.2 29.8
05:55 1022 30.18 852 25.16 0.2 32.3 92 -1 30.1
06:00 1022 30.18 852 25.16 0.2 32.3 93 -0.9 30.4
06:05 1022 30.18 852 25.16 0.1 32.2 92 -1 30.2
06:10 1022 30.18 852 25.16 0.1 32.1 93 -0.9 30.4
06:15 1023 30.21 852 25.16 0.1 32.1 94 -0.8 30.5
06:20 1023 30.21 852 25.16 0.1 32.2 94 -0.8 30.6
06:25 1023 30.21 852 25.16 0 32.1 93 -0.9 30.3
06:30 1023 30.21 852 25.16 -0.1 31.9 95 -0.8 30.6
06:35 1023 30.21 852 25.16 -0.3 31.5 95 -1 30.3
06:40 1023 30.21 852 25.16 -0.5 31.1 95 -1.2 29.9
06:45 1023 30.21 852 25.16 -0.6 31 94 -1.4 29.5
06:50 1023 30.21 852 25.16 -0.4 31.2 92 -1.6 29.2
06:55 1023 30.21 852 25.16 -0.3 31.4 92 -1.5 29.2
07:00 1023 30.21 852 25.16 -0.4 31.3 92 -1.5 29.2
07:05 1023 30.21 852 25.16 -0.4 31.2 92 -1.6 29.1
07:10 1023 30.21 852 25.16 -0.6 30.9 94 -1.5 29.4
07:15 1023 30.21 852 25.16 -0.8 30.6 93 -1.8 28.7
07:20 1023 30.21 852 25.16 -0.4 31.3 85 -2.6 27.3
07:25 1023 30.21 852 25.16 -0.1 31.9 84 -2.4 27.7
07:30 1023 30.21 852 25.16 -0.1 31.9 87 -2 28.4
07:35 1023 30.21 852 25.16 -0.1 31.9 90 -1.6 29.1
07:40 1023 30.21 852 25.16 -0.2 31.6 90 -1.7 29
07:45 1023 30.21 852 25.16 -0.3 31.5 90 -1.7 29
07:50 1023 30.21 852 25.16 -0.3 31.5 91 -1.6 29.1
07:55 1023 30.21 852 25.16 0.3 32.5 88 -1.6 29.2
08:00 1023 30.21 852 25.16 0.7 33.2 86 -1.4 29.4
08:05 1023 30.21 853 25.19 0.8 33.4 86 -1.3 29.6
08:10 1023 30.21 853 25.19 1.2 34.2 83 -1.4 29.4
08:15 1024 30.24 853 25.19 1.2 34.2 84 -1.2 29.8
08:20 1024 30.24 853 25.19 1.4 34.6 82 -1.3 29.6
08:25 1024 30.24 853 25.19 1.7 35 74 -2.5 27.5
08:30 1024 30.24 853 25.19 1.5 34.8 76 -2.3 27.8
08:35 1024 30.24 853 25.19 1.5 34.8 75 -2.4 27.7
08:40 1024 30.24 853 25.19 1.8 35.2 71 -2.8 26.9
08:45 1024 30.24 853 25.19 1.9 35.3 77 -1.8 28.7
08:50 1024 30.24 853 25.19 1.9 35.4 75 -2.1 28.3
08:55 1024 30.24 854 25.22 1.8 35.2 75 -2.2 28.1
09:00 1024 30.24 854 25.22 1.8 35.2 73 -2.5 27.5
09:05 1024 30.24 854 25.22 2 35.5 74 -2.2 28.1
09:10 1025 30.27 854 25.22 2.1 35.8 73 -2.2 28
09:15 1025 30.27 854 25.22 2.8 37 70 -2.2 28.1
09:20 1025 30.27 854 25.22 3.1 37.5 68 -2.3 27.9
09:25 1025 30.27 854 25.22 3.1 37.6 69 -2 28.4
09:30 1025 30.27 854 25.22 3 37.4 71 -1.6 29
09:35 1025 30.27 854 25.22 2.7 36.8 73 -1.7 28.9
09:40 1025 30.27 854 25.22 2.7 36.8 73 -1.8 28.8
09:45 1025 30.27 854 25.22 2.9 37.1 73 -1.4 29.4
09:50 1025 30.27 854 25.22 2.9 37.2 73 -1.6 29.2
09:55 1025 30.27 854 25.22 3.2 37.7 70 -1.7 28.9
10:00 1025 30.27 854 25.22 3.3 38 71 -1.5 29.4
10:05 1025 30.27 854 25.22 3.1 37.5 72 -1.6 29.1
10:10 1025 30.27 854 25.22 3 37.3 71 -1.9 28.7
10:15 1025 30.27 854 25.22 3 37.4 73 -1.4 29.5
10:20 1025 30.27 854 25.22 2.8 37 72 -1.8 28.8
10:25 1025 30.27 854 25.22 2.8 37 72 -1.9 28.6
10:30 1025 30.27 854 25.22 3 37.4 71 -1.8 28.8
10:35 1025 30.27 854 25.22 3.3 38 68 -1.9 28.5
10:40 1025 30.27 854 25.22 3.9 39.1 67 -1.6 29.1
10:45 1025 30.27 854 25.22 4.3 39.7 65 -1.7 29
10:50 1025 30.27 854 25.22 3.9 39 66 -1.9 28.6
10:55 1025 30.27 854 25.22 4 39.2 62 -2.7 27.1
11:00 1025 30.27 854 25.22 4.3 39.8 62 -2.2 28
11:05 1025 30.27 854 25.22 4.7 40.4 63 -1.8 28.8
11:10 1025 30.27 855 25.25 5.2 41.3 59 -2.1 28.2
11:15 1025 30.27 855 25.25 4.8 40.7 60 -2.2 28
11:20 1025 30.27 855 25.25 5 41.1 60 -2.2 28.1
11:25 1025 30.27 855 25.25 5.8 42.4 58 -1.8 28.8
11:30 1025 30.27 855 25.25 5.9 42.6 53 -2.9 26.9
11:35 1025 30.27 855 25.25 4.7 40.4 59 -2.6 27.2
11:40 1025 30.27 855 25.25 4.5 40.1 61 -2.3 27.9
11:45 1025 30.27 855 25.25 5.4 41.7 58 -2.2 28
11:50 1025 30.27 855 25.25 6 42.7 58 -1.7 28.9
11:55 1025 30.27 855 25.25 6.5 43.6 55 -2 28.4
12:00 1025 30.27 854 25.22 6.7 44 54 -1.9 28.5
12:05 1025 30.27 854 25.22 6.4 43.5 57 -1.4 29.4
12:10 1025 30.27 854 25.22 6.3 43.3 56 -1.9 28.6
12:15 1025 30.27 854 25.22 6.6 43.9 55 -1.7 28.9
12:20 1025 30.27 854 25.22 6.9 44.4 53 -2 28.4
12:25 1025 30.27 854 25.22 6.7 44.1 54 -2 28.4
12:30 1025 30.27 854 25.22 7 44.6 55 -1.4 29.5
12:35 1025 30.27 854 25.22 7.1 44.9 53 -1.7 28.9
12:40 1025 30.27 854 25.22 7.1 44.8 53 -1.8 28.7
12:45 1025 30.27 854 25.22 7.2 45 54 -1.4 29.4
12:50 1025 30.27 854 25.22 6.8 44.3 57 -1.1 30.1
12:55 1025 30.27 854 25.22 7 44.6 55 -1.5 29.4
13:00 1025 30.27 854 25.22 7.1 44.9 55 -1.2 29.8
13:05 1025 30.27 854 25.22 7.4 45.3 56 -0.8 30.5
13:10 1025 30.27 854 25.22 6.7 44 56 -1.4 29.5
13:15 1025 30.27 854 25.22 6.5 43.7 59 -0.9 30.4
13:20 1025 30.27 854 25.22 6.4 43.6 62 -0.4 31.3
13:25 1025 30.27 854 25.22 7.1 44.9 58 -0.5 31.1
13:30 1025 30.27 854 25.22 7.6 45.6 59 0.2 32.3
13:35 1025 30.27 854 25.22 7.6 45.7 60 0.3 32.5
13:40 1025 30.27 854 25.22 8.4 47.2 49 -1.7 28.9
13:45 1025 30.27 854 25.22 8 46.5 48 -2.4 27.6
13:50 1025 30.27 854 25.22 8.1 46.5 48 -2.4 27.7
13:55 1025 30.27 854 25.22 7.7 45.8 56 -0.6 30.9
14:00 1025 30.27 854 25.22 7.8 46 54 -0.8 30.6
14:05 1025 30.27 854 25.22 8.6 47.4 47 -2 28.4
14:10 1025 30.27 854 25.22 7.6 45.7 54 -1.2 29.9
14:15 1025 30.27 854 25.22 6.4 43.5 57 -1.4 29.5
14:20 1025 30.27 854 25.22 6.8 44.2 60 -0.4 31.3
14:25 1025 30.27 854 25.22 6.9 44.4 60 -0.3 31.5
14:30 1025 30.27 854 25.22 7.3 45.1 55 -1.2 29.9
14:35 1025 30.27 854 25.22 8.1 46.5 52 -1 30.1
14:40 1025 30.27 854 25.22 8.9 48 58 1 33.8
14:45 1025 30.27 854 25.22 8.9 48 52 -0.4 31.2
14:50 1025 30.27 854 25.22 8.7 47.7 53 -0.3 31.5
14:55 1024 30.24 854 25.22 8.2 46.8 52 -1.1 29.9
15:00 1024 30.24 854 25.22 8.2 46.8 55 -0.4 31.3
15:05 1024 30.24 854 25.22 9.1 48.5 54 0.3 32.6
15:10 1024 30.24 854 25.22 9.4 48.9 49 -0.8 30.6
15:15 1025 30.27 854 25.22 9.8 49.6 51 0.2 32.3
15:20 1024 30.24 854 25.22 9.2 48.5 50 -0.6 31
15:25 1024 30.24 854 25.22 8.4 47.1 54 -0.4 31.3
15:30 1024 30.24 854 25.22 8.6 47.5 52 -0.5 31.1
15:35 1024 30.24 854 25.22 8.5 47.2 55 -0.1 31.7
15:40 1024 30.24 853 25.19 8.8 47.9 52 -0.5 31.1
15:45 1024 30.24 853 25.19 9 48.1 51 -0.7 30.7
15:50 1024 30.24 853 25.19 8.8 47.8 52 -0.5 31.1
15:55 1024 30.24 853 25.19 9.7 49.4 45 -1.7 29
16:00 1024 30.24 854 25.22 9.6 49.3 47 -1.2 29.9
16:05 1024 30.24 854 25.22 10 50.1 46 -1.1 30
16:10 1024 30.24 854 25.22 10 50 49 -0.3 31.4
16:15 1024 30.24 854 25.22 9.8 49.7 50 0 32.1
16:20 1024 30.24 854 25.22 9.3 48.7 49 -0.8 30.6
16:25 1024 30.24 854 25.22 9.3 48.8 48 -1.2 29.9
16:30 1024 30.24 854 25.22 10 50 47 -0.8 30.5
16:35 1024 30.24 854 25.22 10.7 51.3 48 0.1 32.2
16:40 1024 30.24 854 25.22 9.7 49.4 52 0.2 32.4
16:45 1024 30.24 854 25.22 10.2 50.3 44 -1.5 29.3
16:50 1024 30.24 854 25.22 10.8 51.5 45 -0.5 31
16:55 1024 30.24 854 25.22 10.2 50.4 49 -0.1 31.8
17:00 1024 30.24 854 25.22 9.5 49.1 43 -2.4 27.7
17:05 1024 30.24 854 25.22 10 50 39 -3.1 26.3
17:10 1024 30.24 854 25.22 10.8 51.5 45 -0.5 31.2
17:15 1024 30.24 854 25.22 9.7 49.4 46 -1.5 29.4
17:20 1024 30.24 854 25.22 9.7 49.4 45 -1.6 29.1
17:25 1024 30.24 854 25.22 10.1 50.2 46 -0.9 30.3
17:30 1024 30.24 854 25.22 9.9 49.8 49 -0.3 31.5
17:35 1024 30.24 854 25.22 9.6 49.3 48 -0.8 30.6
17:40 1024 30.24 854 25.22 9.5 49.1 51 -0.2 31.7
17:45 1024 30.24 854 25.22 9.2 48.5 50 -0.6 30.8
17:50 1025 30.27 854 25.22 9.1 48.3 50 -0.7 30.7
17:55 1025 30.27 854 25.22 9.6 49.2 46 -1.3 29.6
18:00 1025 30.27 854 25.22 10.1 50.1 46 -1.1 30
18:05 1025 30.27 854 25.22 9.9 49.9 46 -1.2 29.8
18:10 1025 30.27 854 25.22 9.7 49.5 45 -1.6 29
18:15 1025 30.27 854 25.22 9.3 48.8 48 -1.2 29.8
18:20 1025 30.27 854 25.22 9.2 48.5 46 -1.7 28.9
18:25 1025 30.27 854 25.22 9 48.1 48 -1.4 29.4
18:30 1025 30.27 854 25.22 9 48.2 47 -1.7 28.9
18:35 1025 30.27 854 25.22 9.2 48.5 49 -0.9 30.5
18:40 1025 30.27 854 25.22 8.9 48 49 -1.3 29.6
18:45 1025 30.27 854 25.22 9 48.1 49 -1.3 29.7
18:50 1025 30.27 854 25.22 8.8 47.8 50 -1 30.2
18:55 1025 30.27 854 25.22 8.9 48 46 -2 28.4
19:00 1025 30.27 854 25.22 9 48.2 43 -2.7 27.1
19:05 1025 30.27 854 25.22 9.2 48.6 44 -2.3 27.8
19:10 1025 30.27 854 25.22 8.8 47.8 54 0 32
19:15 1025 30.27 854 25.22 8 46.4 59 0.5 33
19:20 1025 30.27 854 25.22 7.7 45.9 60 0.5 32.9
19:25 1025 30.27 854 25.22 7.5 45.4 62 0.6 33
19:30 1025 30.27 854 25.22 7.2 44.9 63 0.8 33.4
19:35 1025 30.27 854 25.22 6.8 44.2 65 0.8 33.4
19:40 1025 30.27 854 25.22 6.6 43.8 67 0.9 33.7
19:45 1025 30.27 854 25.22 6.4 43.4 68 0.8 33.5
19:50 1025 30.27 854 25.22 6.1 43 70 1 33.9
19:55 1025 30.27 854 25.22 5.7 42.3 70 0.7 33.3
20:00 1025 30.27 854 25.22 5.5 41.9 71 0.6 33.1
20:05 1025 30.27 854 25.22 5.4 41.7 71 0.5 32.9
20:10 1025 30.27 854 25.22 5.2 41.3 72 0.6 33
20:15 1025 30.27 854 25.22 5 41.1 72 0.4 32.7
20:20 1025 30.27 854 25.22 4.9 40.9 73 0.5 32.8
20:25 1025 30.27 854 25.22 4.7 40.5 74 0.5 33
20:30 1025 30.27 854 25.22 4.4 39.9 75 0.4 32.7
20:35 1025 30.27 854 25.22 4.1 39.5 76 0.2 32.4
20:40 1025 30.27 854 25.22 4.1 39.4 76 0.3 32.6
20:45 1025 30.27 855 25.25 3.9 39 77 0.3 32.5
20:50 1025 30.27 855 25.25 3.6 38.5 80 0.5 33
20:55 1025 30.27 855 25.25 3.4 38.1 81 0.4 32.8
21:00 1025 30.27 855 25.25 3.4 38.1 79 0 32
21:05 1026 30.3 855 25.25 3.6 38.5 74 -0.6 30.9
21:10 1026 30.3 855 25.25 3.7 38.7 74 -0.4 31.3
21:15 1026 30.3 855 25.25 3.7 38.6 73 -0.7 30.7
21:20 1026 30.3 855 25.25 3.7 38.6 72 -0.9 30.4
21:25 1026 30.3 855 25.25 3.8 38.8 70 -1.1 30
21:30 1026 30.3 855 25.25 3.7 38.6 73 -0.7 30.8
21:35 1026 30.3 855 25.25 3.4 38.1 73 -1 30.2
21:40 1026 30.3 855 25.25 3.3 37.9 77 -0.4 31.2
21:45 1026 30.3 855 25.25 3.1 37.5 75 -0.9 30.4
21:50 1026 30.3 855 25.25 3.1 37.6 73 -1.2 29.8
21:55 1026 30.3 855 25.25 3.3 37.9 72 -1.3 29.7
22:00 1026 30.3 855 25.25 3.2 37.7 75 -0.8 30.6
22:05 1026 30.3 855 25.25 2.8 37.1 76 -0.9 30.3
22:10 1026 30.3 855 25.25 2.8 37.1 76 -0.9 30.4
22:15 1026 30.3 855 25.25 2.9 37.3 76 -0.9 30.3
22:20 1026 30.3 855 25.25 2.9 37.2 75 -1.1 30.1
22:25 1026 30.3 855 25.25 3.1 37.6 73 -1.3 29.6
22:30 1026 30.3 855 25.25 3.2 37.7 73 -1.3 29.7
22:35 1026 30.3 855 25.25 2.9 37.2 74 -1.4 29.6
22:40 1026 30.3 855 25.25 2.9 37.1 73 -1.5 29.4
22:45 1026 30.3 855 25.25 2.9 37.1 73 -1.5 29.3
22:50 1026 30.3 855 25.25 2.8 37.1 73 -1.5 29.3
22:55 1026 30.3 855 25.25 2.7 36.9 72 -1.8 28.7
23:00 1026 30.3 855 25.25 2.9 37.2 71 -1.8 28.8
23:05 1026 30.3 855 25.25 2.9 37.1 71 -1.8 28.7
23:10 1026 30.3 855 25.25 2.8 37 72 -1.9 28.7
23:15 1026 30.3 855 25.25 2.8 37 71 -2 28.5
23:20 1026 30.3 855 25.25 2.7 36.9 71 -2 28.3
23:25 1026 30.3 855 25.25 2.6 36.7 72 -1.9 28.5
23:30 1026 30.3 855 25.25 2.6 36.6 71 -2.2 28
23:35 1026 30.3 855 25.25 2.6 36.6 70 -2.3 27.9
23:40 1026 30.3 855 25.25 2.5 36.6 71 -2.3 27.9
23:45 1026 30.3 855 25.25 2.6 36.6 70 -2.3 27.8
23:50 1026 30.3 855 25.25 2.4 36.4 70 -2.5 27.5
23:55 1026 30.3 855 25.25 2.6 36.7 68 -2.7 27.1
24:00 1026 30.3 855 25.25 2.6 36.8 68 -2.6 27.4